sensor_id;sensor_type;location;lat;lon;timestamp;pressure;altitude;pressure_sealevel;temperature;humidity
47082;BME280;33066;49.296;14.470;2023-03-20T00:00:53;97033.71;;;14.80;38.13
47082;BME280;33066;49.296;14.470;2023-03-20T00:03:18;97036.84;;;14.87;38.00
47082;BME280;33066;49.296;14.470;2023-03-20T00:05:44;97038.30;;;15.01;38.08
47082;BME280;33066;49.296;14.470;2023-03-20T00:08:09;97037.69;;;14.72;38.13
47082;BME280;33066;49.296;14.470;2023-03-20T00:10:36;97039.39;;;15.01;38.25
47082;BME280;33066;49.296;14.470;2023-03-20T00:13:00;97040.50;;;15.06;38.23
47082;BME280;33066;49.296;14.470;2023-03-20T00:15:27;97044.31;;;15.04;38.26
47082;BME280;33066;49.296;14.470;2023-03-20T00:17:50;97045.97;;;14.84;38.16
47082;BME280;33066;49.296;14.470;2023-03-20T00:20:16;97050.69;;;15.11;38.30
47082;BME280;33066;49.296;14.470;2023-03-20T00:22:41;97051.07;;;14.93;38.37
47082;BME280;33066;49.296;14.470;2023-03-20T00:25:11;97049.93;;;14.97;38.35
47082;BME280;33066;49.296;14.470;2023-03-20T00:27:31;97050.23;;;14.96;38.39
47082;BME280;33066;49.296;14.470;2023-03-20T00:29:57;97048.32;;;15.14;38.46
47082;BME280;33066;49.296;14.470;2023-03-20T00:32:22;97045.76;;;14.86;38.41
47082;BME280;33066;49.296;14.470;2023-03-20T00:34:47;97043.61;;;15.06;38.31
47082;BME280;33066;49.296;14.470;2023-03-20T00:37:13;97039.50;;;14.73;38.31
47082;BME280;33066;49.296;14.470;2023-03-20T00:39:39;97037.32;;;14.79;38.23
47082;BME280;33066;49.296;14.470;2023-03-20T00:42:05;97036.11;;;15.08;38.14
47082;BME280;33066;49.296;14.470;2023-03-20T00:44:33;97035.21;;;15.09;38.15
47082;BME280;33066;49.296;14.470;2023-03-20T00:46:58;97039.05;;;15.05;38.21
47082;BME280;33066;49.296;14.470;2023-03-20T00:49:25;97036.26;;;15.21;38.28
47082;BME280;33066;49.296;14.470;2023-03-20T00:51:46;97041.17;;;14.81;38.48
47082;BME280;33066;49.296;14.470;2023-03-20T00:54:12;97041.30;;;14.74;38.63
47082;BME280;33066;49.296;14.470;2023-03-20T00:56:42;97040.23;;;14.50;38.62
47082;BME280;33066;49.296;14.470;2023-03-20T00:59:03;97040.42;;;14.37;38.88
47082;BME280;33066;49.296;14.470;2023-03-20T01:01:28;97039.92;;;14.47;38.64
47082;BME280;33066;49.296;14.470;2023-03-20T01:03:53;97042.27;;;14.42;38.75
47082;BME280;33066;49.296;14.470;2023-03-20T01:06:18;97044.74;;;14.44;38.74
47082;BME280;33066;49.296;14.470;2023-03-20T01:08:44;97042.43;;;14.53;38.96
47082;BME280;33066;49.296;14.470;2023-03-20T01:11:11;97042.48;;;14.58;39.06
47082;BME280;33066;49.296;14.470;2023-03-20T01:13:38;97042.09;;;14.94;38.95
47082;BME280;33066;49.296;14.470;2023-03-20T01:16:00;97044.18;;;14.81;38.74
47082;BME280;33066;49.296;14.470;2023-03-20T01:18:26;97044.30;;;14.86;38.73
47082;BME280;33066;49.296;14.470;2023-03-20T01:20:52;97042.62;;;14.88;38.63
47082;BME280;33066;49.296;14.470;2023-03-20T01:23:16;97044.11;;;14.61;38.61
47082;BME280;33066;49.296;14.470;2023-03-20T01:25:42;97044.01;;;14.74;38.68
47082;BME280;33066;49.296;14.470;2023-03-20T01:28:14;97045.30;;;14.73;38.85
47082;BME280;33066;49.296;14.470;2023-03-20T01:30:33;97044.24;;;14.68;38.86
47082;BME280;33066;49.296;14.470;2023-03-20T01:33:00;97047.11;;;14.66;38.92
47082;BME280;33066;49.296;14.470;2023-03-20T01:35:25;97049.27;;;14.55;38.92
47082;BME280;33066;49.296;14.470;2023-03-20T01:37:50;97048.69;;;14.44;39.13
47082;BME280;33066;49.296;14.470;2023-03-20T01:40:29;97050.59;;;14.44;39.22
47082;BME280;33066;49.296;14.470;2023-03-20T01:42:39;97051.23;;;14.50;39.26
47082;BME280;33066;49.296;14.470;2023-03-20T01:45:15;97051.66;;;14.52;39.24
47082;BME280;33066;49.296;14.470;2023-03-20T01:47:30;97050.34;;;14.72;39.13
47082;BME280;33066;49.296;14.470;2023-03-20T01:52:22;97052.56;;;14.62;38.80
47082;BME280;33066;49.296;14.470;2023-03-20T01:54:47;97054.61;;;14.34;38.90
47082;BME280;33066;49.296;14.470;2023-03-20T01:57:16;97052.46;;;14.17;39.04
47082;BME280;33066;49.296;14.470;2023-03-20T01:59:43;97048.69;;;14.04;39.28
47082;BME280;33066;49.296;14.470;2023-03-20T02:02:06;97047.70;;;14.02;39.17
47082;BME280;33066;49.296;14.470;2023-03-20T02:04:33;97043.46;;;14.06;38.83
47082;BME280;33066;49.296;14.470;2023-03-20T02:06:55;97042.59;;;14.22;38.58
47082;BME280;33066;49.296;14.470;2023-03-20T02:09:21;97036.43;;;14.40;38.57
47082;BME280;33066;49.296;14.470;2023-03-20T02:11:47;97037.75;;;14.14;38.77
47082;BME280;33066;49.296;14.470;2023-03-20T02:14:13;97036.16;;;14.20;38.72
47082;BME280;33066;49.296;14.470;2023-03-20T02:16:37;97035.81;;;14.33;38.64
47082;BME280;33066;49.296;14.470;2023-03-20T02:19:04;97035.26;;;14.09;38.56
47082;BME280;33066;49.296;14.470;2023-03-20T02:26:35;97036.82;;;14.20;38.56
47082;BME280;33066;49.296;14.470;2023-03-20T02:38:42;97043.59;;;13.76;38.65
47082;BME280;33066;49.296;14.470;2023-03-20T02:40:55;97045.83;;;13.99;38.55
47082;BME280;33066;49.296;14.470;2023-03-20T02:43:20;97045.05;;;13.53;38.77
47082;BME280;33066;49.296;14.470;2023-03-20T02:45:47;97043.52;;;14.02;38.90
47082;BME280;33066;49.296;14.470;2023-03-20T02:48:14;97041.40;;;13.46;38.67
47082;BME280;33066;49.296;14.470;2023-03-20T02:50:40;97041.74;;;13.71;38.34
47082;BME280;33066;49.296;14.470;2023-03-20T02:53:07;97040.82;;;13.88;38.09
47082;BME280;33066;49.296;14.470;2023-03-20T02:55:30;97041.77;;;13.76;38.07
47082;BME280;33066;49.296;14.470;2023-03-20T02:57:56;97042.08;;;13.47;38.05
47082;BME280;33066;49.296;14.470;2023-03-20T03:00:22;97041.63;;;13.75;37.82
47082;BME280;33066;49.296;14.470;2023-03-20T03:02:47;97043.48;;;13.49;37.88
47082;BME280;33066;49.296;14.470;2023-03-20T03:05:11;97040.45;;;13.73;38.15
47082;BME280;33066;49.296;14.470;2023-03-20T03:07:32;97039.14;;;13.36;38.27
47082;BME280;33066;49.296;14.470;2023-03-20T03:10:02;97042.50;;;13.54;38.14
47082;BME280;33066;49.296;14.470;2023-03-20T03:12:24;97046.16;;;13.49;37.90
47082;BME280;33066;49.296;14.470;2023-03-20T03:14:52;97044.16;;;13.47;38.10
47082;BME280;33066;49.296;14.470;2023-03-20T03:17:16;97043.14;;;13.43;38.25
47082;BME280;33066;49.296;14.470;2023-03-20T03:19:43;97042.71;;;13.41;38.19
47082;BME280;33066;49.296;14.470;2023-03-20T03:22:05;97040.56;;;13.44;38.22
47082;BME280;33066;49.296;14.470;2023-03-20T03:24:32;97041.11;;;13.40;38.47
47082;BME280;33066;49.296;14.470;2023-03-20T03:26:57;97043.48;;;13.87;38.37
47082;BME280;33066;49.296;14.470;2023-03-20T03:29:22;97045.48;;;13.13;38.32
47082;BME280;33066;49.296;14.470;2023-03-20T03:31:47;97042.97;;;13.40;38.33
47082;BME280;33066;49.296;14.470;2023-03-20T03:34:16;97046.44;;;13.27;38.50
47082;BME280;33066;49.296;14.470;2023-03-20T03:36:45;97046.61;;;13.25;38.50
47082;BME280;33066;49.296;14.470;2023-03-20T03:39:11;97044.63;;;13.15;38.61
47082;BME280;33066;49.296;14.470;2023-03-20T03:41:31;97042.83;;;13.10;38.49
47082;BME280;33066;49.296;14.470;2023-03-20T03:44:04;97041.82;;;12.99;38.28
47082;BME280;33066;49.296;14.470;2023-03-20T03:46:25;97039.74;;;13.27;37.86
47082;BME280;33066;49.296;14.470;2023-03-20T03:48:49;97039.21;;;13.27;37.97
47082;BME280;33066;49.296;14.470;2023-03-20T03:51:17;97042.99;;;13.39;37.70
47082;BME280;33066;49.296;14.470;2023-03-20T03:53:41;97047.21;;;12.79;37.73
47082;BME280;33066;49.296;14.470;2023-03-20T03:56:07;97045.64;;;12.98;38.08
47082;BME280;33066;49.296;14.470;2023-03-20T03:58:29;97046.31;;;12.68;37.88
47082;BME280;33066;49.296;14.470;2023-03-20T04:00:54;97044.65;;;12.59;37.77
47082;BME280;33066;49.296;14.470;2023-03-20T04:03:20;97045.99;;;12.80;37.49
47082;BME280;33066;49.296;14.470;2023-03-20T04:05:45;97043.57;;;12.52;37.31
47082;BME280;33066;49.296;14.470;2023-03-20T04:08:09;97045.08;;;12.94;37.35
47082;BME280;33066;49.296;14.470;2023-03-20T04:13:01;97053.88;;;12.76;37.74
47082;BME280;33066;49.296;14.470;2023-03-20T04:15:26;97054.73;;;12.78;38.11
47082;BME280;33066;49.296;14.470;2023-03-20T04:17:51;97053.88;;;13.12;38.13
47082;BME280;33066;49.296;14.470;2023-03-20T04:20:16;97056.63;;;13.04;38.20
47082;BME280;33066;49.296;14.470;2023-03-20T04:22:42;97057.90;;;12.53;38.09
47082;BME280;33066;49.296;14.470;2023-03-20T04:25:15;97061.41;;;12.48;38.26
47082;BME280;33066;49.296;14.470;2023-03-20T04:27:32;97067.36;;;12.42;38.23
47082;BME280;33066;49.296;14.470;2023-03-20T04:29:58;97072.03;;;12.94;37.78
47082;BME280;33066;49.296;14.470;2023-03-20T04:32:23;97074.24;;;12.89;37.79
47082;BME280;33066;49.296;14.470;2023-03-20T04:34:49;97073.06;;;12.88;38.03
47082;BME280;33066;49.296;14.470;2023-03-20T04:37:14;97070.09;;;12.74;37.81
47082;BME280;33066;49.296;14.470;2023-03-20T04:39:40;97071.58;;;12.56;37.83
47082;BME280;33066;49.296;14.470;2023-03-20T04:42:07;97073.58;;;12.27;38.47
47082;BME280;33066;49.296;14.470;2023-03-20T04:44:31;97075.55;;;12.21;38.61
47082;BME280;33066;49.296;14.470;2023-03-20T04:46:57;97075.63;;;12.18;38.60
47082;BME280;33066;49.296;14.470;2023-03-20T04:49:22;97079.92;;;12.33;38.36
47082;BME280;33066;49.296;14.470;2023-03-20T04:51:48;97083.79;;;12.43;38.29
47082;BME280;33066;49.296;14.470;2023-03-20T04:54:13;97084.14;;;12.25;38.41
47082;BME280;33066;49.296;14.470;2023-03-20T04:56:38;97082.52;;;12.57;38.43
47082;BME280;33066;49.296;14.470;2023-03-20T04:59:04;97085.66;;;12.63;38.28
47082;BME280;33066;49.296;14.470;2023-03-20T05:01:29;97090.55;;;12.64;38.40
47082;BME280;33066;49.296;14.470;2023-03-20T05:03:56;97093.98;;;12.39;39.16
47082;BME280;33066;49.296;14.470;2023-03-20T05:06:20;97096.09;;;12.58;38.96
47082;BME280;33066;49.296;14.470;2023-03-20T05:08:47;97098.85;;;12.59;39.47
47082;BME280;33066;49.296;14.470;2023-03-20T05:11:10;97101.09;;;12.61;39.63
47082;BME280;33066;49.296;14.470;2023-03-20T05:13:35;97099.89;;;12.69;39.55
47082;BME280;33066;49.296;14.470;2023-03-20T05:16:03;97101.41;;;12.76;39.28
47082;BME280;33066;49.296;14.470;2023-03-20T05:18:26;97100.49;;;12.83;38.39
47082;BME280;33066;49.296;14.470;2023-03-20T05:20:51;97103.45;;;12.80;38.12
47082;BME280;33066;49.296;14.470;2023-03-20T05:23:17;97104.07;;;12.73;37.93
47082;BME280;33066;49.296;14.470;2023-03-20T05:25:43;97102.30;;;12.44;38.15
47082;BME280;33066;49.296;14.470;2023-03-20T05:28:09;97101.38;;;12.74;38.10
47082;BME280;33066;49.296;14.470;2023-03-20T05:30:34;97104.60;;;12.89;38.32
47082;BME280;33066;49.296;14.470;2023-03-20T05:32:59;97103.44;;;13.01;38.24
47082;BME280;33066;49.296;14.470;2023-03-20T05:35:25;97101.61;;;12.57;37.84
47082;BME280;33066;49.296;14.470;2023-03-20T05:37:49;97100.00;;;12.72;37.72
47082;BME280;33066;49.296;14.470;2023-03-20T05:40:16;97103.23;;;12.41;37.89
47082;BME280;33066;49.296;14.470;2023-03-20T05:42:41;97104.72;;;12.64;37.94
47082;BME280;33066;49.296;14.470;2023-03-20T05:45:07;97105.59;;;12.76;37.98
47082;BME280;33066;49.296;14.470;2023-03-20T05:47:31;97105.14;;;12.54;38.19
47082;BME280;33066;49.296;14.470;2023-03-20T05:49:57;97103.56;;;12.81;38.30
47082;BME280;33066;49.296;14.470;2023-03-20T05:52:22;97105.27;;;12.73;38.14
47082;BME280;33066;49.296;14.470;2023-03-20T05:54:47;97106.35;;;12.81;38.04
47082;BME280;33066;49.296;14.470;2023-03-20T05:57:13;97107.65;;;12.87;38.17
47082;BME280;33066;49.296;14.470;2023-03-20T05:59:38;97111.84;;;12.92;38.07
47082;BME280;33066;49.296;14.470;2023-03-20T06:02:04;97115.26;;;12.75;37.98
47082;BME280;33066;49.296;14.470;2023-03-20T06:04:29;97119.39;;;13.07;37.69
47082;BME280;33066;49.296;14.470;2023-03-20T06:06:55;97123.07;;;12.90;37.49
47082;BME280;33066;49.296;14.470;2023-03-20T06:09:20;97124.86;;;12.74;37.37
47082;BME280;33066;49.296;14.470;2023-03-20T06:11:46;97124.58;;;13.01;37.48
47082;BME280;33066;49.296;14.470;2023-03-20T06:14:11;97124.83;;;13.16;37.62
47082;BME280;33066;49.296;14.470;2023-03-20T06:16:36;97126.55;;;12.98;37.66
47082;BME280;33066;49.296;14.470;2023-03-20T06:19:01;97129.60;;;12.90;37.73
47082;BME280;33066;49.296;14.470;2023-03-20T06:21:26;97133.29;;;12.92;37.88
47082;BME280;33066;49.296;14.470;2023-03-20T06:23:54;97133.08;;;12.88;37.95
47082;BME280;33066;49.296;14.470;2023-03-20T06:26:18;97140.50;;;13.24;37.93
47082;BME280;33066;49.296;14.470;2023-03-20T06:28:43;97143.37;;;12.89;37.81
47082;BME280;33066;49.296;14.470;2023-03-20T06:31:09;97145.76;;;12.96;37.75
47082;BME280;33066;49.296;14.470;2023-03-20T06:33:34;97144.43;;;13.05;37.75
47082;BME280;33066;49.296;14.470;2023-03-20T06:36:01;97149.14;;;13.06;37.79
47082;BME280;33066;49.296;14.470;2023-03-20T06:38:26;97150.66;;;13.09;37.82
47082;BME280;33066;49.296;14.470;2023-03-20T06:40:51;97149.89;;;13.08;37.63
47082;BME280;33066;49.296;14.470;2023-03-20T06:43:17;97149.99;;;13.34;37.67
47082;BME280;33066;49.296;14.470;2023-03-20T06:45:42;97151.71;;;13.78;37.77
47082;BME280;33066;49.296;14.470;2023-03-20T06:48:08;97153.10;;;13.24;37.88
47082;BME280;33066;49.296;14.470;2023-03-20T06:50:33;97156.87;;;13.09;38.23
47082;BME280;33066;49.296;14.470;2023-03-20T06:52:58;97158.87;;;13.14;38.24
47082;BME280;33066;49.296;14.470;2023-03-20T06:55:24;97158.59;;;13.26;38.22
47082;BME280;33066;49.296;14.470;2023-03-20T06:57:50;97156.70;;;13.37;38.13
47082;BME280;33066;49.296;14.470;2023-03-20T07:00:16;97156.42;;;13.43;38.10
47082;BME280;33066;49.296;14.470;2023-03-20T07:02:41;97158.42;;;13.55;38.16
47082;BME280;33066;49.296;14.470;2023-03-20T07:05:07;97161.06;;;13.57;38.58
47082;BME280;33066;49.296;14.470;2023-03-20T07:07:31;97163.09;;;13.89;38.35
47082;BME280;33066;49.296;14.470;2023-03-20T07:09:56;97160.29;;;13.70;38.67
47082;BME280;33066;49.296;14.470;2023-03-20T07:12:21;97166.90;;;13.81;38.62
47082;BME280;33066;49.296;14.470;2023-03-20T07:14:48;97168.49;;;13.68;38.58
47082;BME280;33066;49.296;14.470;2023-03-20T07:17:13;97169.28;;;13.78;38.37
47082;BME280;33066;49.296;14.470;2023-03-20T07:19:39;97169.54;;;14.06;38.36
47082;BME280;33066;49.296;14.470;2023-03-20T07:22:07;97171.19;;;14.11;38.26
47082;BME280;33066;49.296;14.470;2023-03-20T07:24:29;97169.32;;;14.17;38.51
47082;BME280;33066;49.296;14.470;2023-03-20T07:26:55;97174.76;;;14.11;38.30
47082;BME280;33066;49.296;14.470;2023-03-20T07:29:20;97177.00;;;14.08;38.41
47082;BME280;33066;49.296;14.470;2023-03-20T07:31:46;97177.71;;;14.09;38.45
47082;BME280;33066;49.296;14.470;2023-03-20T07:34:12;97179.26;;;14.06;38.64
47082;BME280;33066;49.296;14.470;2023-03-20T07:36:38;97180.37;;;13.88;38.75
47082;BME280;33066;49.296;14.470;2023-03-20T07:39:04;97183.04;;;14.04;38.54
47082;BME280;33066;49.296;14.470;2023-03-20T07:41:28;97184.45;;;14.05;38.64
47082;BME280;33066;49.296;14.470;2023-03-20T07:43:54;97185.60;;;13.85;38.78
47082;BME280;33066;49.296;14.470;2023-03-20T07:46:20;97186.31;;;13.97;38.79
47082;BME280;33066;49.296;14.470;2023-03-20T07:48:45;97185.73;;;13.94;38.98
47082;BME280;33066;49.296;14.470;2023-03-20T07:51:11;97186.96;;;14.00;38.94
47082;BME280;33066;49.296;14.470;2023-03-20T07:53:36;97187.42;;;13.85;38.84
47082;BME280;33066;49.296;14.470;2023-03-20T07:56:03;97185.71;;;14.11;38.82
47082;BME280;33066;49.296;14.470;2023-03-20T07:58:28;97187.12;;;14.19;38.62
47082;BME280;33066;49.296;14.470;2023-03-20T08:00:57;97183.30;;;14.30;38.83
47082;BME280;33066;49.296;14.470;2023-03-20T08:03:18;97182.71;;;14.12;38.43
47082;BME280;33066;49.296;14.470;2023-03-20T08:05:44;97184.30;;;14.51;38.55
47082;BME280;33066;49.296;14.470;2023-03-20T08:08:09;97183.53;;;14.40;38.13
47082;BME280;33066;49.296;14.470;2023-03-20T08:10:35;97184.01;;;14.43;38.18
47082;BME280;33066;49.296;14.470;2023-03-20T08:13:00;97185.04;;;14.58;38.04
47082;BME280;33066;49.296;14.470;2023-03-20T08:15:25;97188.30;;;14.60;38.01
47082;BME280;33066;49.296;14.470;2023-03-20T08:17:51;97187.53;;;14.57;38.12
47082;BME280;33066;49.296;14.470;2023-03-20T08:20:16;97188.91;;;14.68;37.97
47082;BME280;33066;49.296;14.470;2023-03-20T08:22:43;97188.05;;;14.82;37.90
47082;BME280;33066;49.296;14.470;2023-03-20T08:25:09;97185.76;;;14.58;37.88
47082;BME280;33066;49.296;14.470;2023-03-20T08:27:32;97185.32;;;14.62;37.99
47082;BME280;33066;49.296;14.470;2023-03-20T08:29:58;97186.84;;;14.91;38.03
47082;BME280;33066;49.296;14.470;2023-03-20T08:32:23;97187.76;;;14.93;38.01
47082;BME280;33066;49.296;14.470;2023-03-20T08:34:48;97184.50;;;15.01;38.03
47082;BME280;33066;49.296;14.470;2023-03-20T08:37:13;97182.86;;;15.00;38.12
47082;BME280;33066;49.296;14.470;2023-03-20T08:39:39;97185.65;;;15.08;38.10
47082;BME280;33066;49.296;14.470;2023-03-20T08:42:04;97183.65;;;15.16;38.04
47082;BME280;33066;49.296;14.470;2023-03-20T08:44:29;97186.27;;;15.04;38.16
47082;BME280;33066;49.296;14.470;2023-03-20T08:46:55;97190.45;;;15.13;38.15
47082;BME280;33066;49.296;14.470;2023-03-20T08:49:20;97193.33;;;15.00;38.04
47082;BME280;33066;49.296;14.470;2023-03-20T08:51:46;97195.49;;;15.14;37.89
47082;BME280;33066;49.296;14.470;2023-03-20T08:54:11;97196.55;;;15.35;37.77
47082;BME280;33066;49.296;14.470;2023-03-20T08:56:36;97195.35;;;15.40;37.80
47082;BME280;33066;49.296;14.470;2023-03-20T08:59:02;97193.26;;;15.70;37.81
47082;BME280;33066;49.296;14.470;2023-03-20T09:01:27;97190.56;;;15.59;37.78
47082;BME280;33066;49.296;14.470;2023-03-20T09:03:53;97189.65;;;15.90;37.64
47082;BME280;33066;49.296;14.470;2023-03-20T09:06:19;97188.86;;;15.65;37.71
47082;BME280;33066;49.296;14.470;2023-03-20T09:08:44;97189.22;;;16.14;37.50
47082;BME280;33066;49.296;14.470;2023-03-20T09:11:10;97189.07;;;16.33;37.59
47082;BME280;33066;49.296;14.470;2023-03-20T09:13:36;97190.70;;;16.49;37.38
47082;BME280;33066;49.296;14.470;2023-03-20T09:16:01;97192.05;;;16.58;37.59
47082;BME280;33066;49.296;14.470;2023-03-20T09:18:26;97192.87;;;16.75;37.19
47082;BME280;33066;49.296;14.470;2023-03-20T09:20:52;97191.06;;;16.57;37.08
47082;BME280;33066;49.296;14.470;2023-03-20T09:23:18;97186.81;;;16.84;36.97
47082;BME280;33066;49.296;14.470;2023-03-20T09:25:43;97186.66;;;16.67;36.80
47082;BME280;33066;49.296;14.470;2023-03-20T09:28:09;97185.81;;;16.71;36.98
47082;BME280;33066;49.296;14.470;2023-03-20T09:30:34;97181.81;;;16.58;37.06
47082;BME280;33066;49.296;14.470;2023-03-20T09:32:59;97181.89;;;16.85;36.77
47082;BME280;33066;49.296;14.470;2023-03-20T09:35:25;97177.99;;;16.53;36.46
47082;BME280;33066;49.296;14.470;2023-03-20T09:37:50;97176.97;;;16.82;36.71
47082;BME280;33066;49.296;14.470;2023-03-20T09:40:23;97177.23;;;17.04;36.59
47082;BME280;33066;49.296;14.470;2023-03-20T09:42:46;97175.18;;;16.95;37.04
47082;BME280;33066;49.296;14.470;2023-03-20T09:45:11;97175.47;;;17.32;36.62
47082;BME280;33066;49.296;14.470;2023-03-20T09:47:37;97171.56;;;16.85;35.74
47082;BME280;33066;49.296;14.470;2023-03-20T09:50:10;97171.04;;;16.91;36.26
47082;BME280;33066;49.296;14.470;2023-03-20T09:52:27;97174.28;;;16.98;36.06
47082;BME280;33066;49.296;14.470;2023-03-20T09:54:52;97170.81;;;16.87;35.67
47082;BME280;33066;49.296;14.470;2023-03-20T09:57:20;97167.42;;;16.89;35.74
47082;BME280;33066;49.296;14.470;2023-03-20T09:59:40;97162.51;;;17.03;35.33
47082;BME280;33066;49.296;14.470;2023-03-20T10:02:11;97164.12;;;16.85;35.64
47082;BME280;33066;49.296;14.470;2023-03-20T10:04:31;97164.05;;;16.82;35.81
47082;BME280;33066;49.296;14.470;2023-03-20T10:06:56;97159.75;;;16.99;35.72
47082;BME280;33066;49.296;14.470;2023-03-20T10:09:23;97157.80;;;17.08;35.52
47082;BME280;33066;49.296;14.470;2023-03-20T10:11:58;97161.45;;;17.18;35.31
47082;BME280;33066;49.296;14.470;2023-03-20T10:14:21;97161.81;;;16.91;35.02
47082;BME280;33066;49.296;14.470;2023-03-20T10:16:47;97158.58;;;17.49;34.81
47082;BME280;33066;49.296;14.470;2023-03-20T10:19:10;97157.47;;;17.60;34.88
47082;BME280;33066;49.296;14.470;2023-03-20T10:21:36;97157.70;;;17.34;34.79
47082;BME280;33066;49.296;14.470;2023-03-20T10:23:58;97151.52;;;17.69;34.73
47082;BME280;33066;49.296;14.470;2023-03-20T10:26:21;97144.80;;;17.64;34.53
47082;BME280;33066;49.296;14.470;2023-03-20T10:28:48;97140.44;;;17.90;34.05
47082;BME280;33066;49.296;14.470;2023-03-20T10:31:21;97142.76;;;18.35;33.59
47082;BME280;33066;49.296;14.470;2023-03-20T10:33:46;97140.00;;;18.71;32.83
47082;BME280;33066;49.296;14.470;2023-03-20T10:36:12;97137.51;;;19.12;32.26
47082;BME280;33066;49.296;14.470;2023-03-20T10:38:33;97139.00;;;19.63;31.73
47082;BME280;33066;49.296;14.470;2023-03-20T10:40:52;97134.17;;;20.58;30.72
47082;BME280;33066;49.296;14.470;2023-03-20T10:43:19;97125.33;;;20.93;30.37
47082;BME280;33066;49.296;14.470;2023-03-20T10:45:44;97120.42;;;21.43;29.85
47082;BME280;33066;49.296;14.470;2023-03-20T10:48:16;97119.05;;;21.56;29.12
47082;BME280;33066;49.296;14.470;2023-03-20T10:50:38;97113.98;;;21.46;28.14
47082;BME280;33066;49.296;14.470;2023-03-20T10:52:58;97112.46;;;21.26;28.19
47082;BME280;33066;49.296;14.470;2023-03-20T10:55:26;97109.00;;;21.14;27.63
47082;BME280;33066;49.296;14.470;2023-03-20T10:57:51;97112.40;;;21.57;27.87
47082;BME280;33066;49.296;14.470;2023-03-20T11:00:17;97098.12;;;21.79;27.35
47082;BME280;33066;49.296;14.470;2023-03-20T11:02:39;97093.76;;;22.00;26.98
47082;BME280;33066;49.296;14.470;2023-03-20T11:05:17;97097.77;;;21.83;27.37
47082;BME280;33066;49.296;14.470;2023-03-20T11:07:33;97093.87;;;22.09;27.09
47082;BME280;33066;49.296;14.470;2023-03-20T11:10:07;97087.59;;;22.05;26.79
47082;BME280;33066;49.296;14.470;2023-03-20T11:12:20;97079.09;;;22.49;26.70
47082;BME280;33066;49.296;14.470;2023-03-20T11:14:45;97080.42;;;22.78;26.63
47082;BME280;33066;49.296;14.470;2023-03-20T11:17:11;97079.66;;;22.97;26.08
47082;BME280;33066;49.296;14.470;2023-03-20T11:19:37;97076.68;;;22.99;25.92
47082;BME280;33066;49.296;14.470;2023-03-20T11:22:08;97080.87;;;23.44;25.26
47082;BME280;33066;49.296;14.470;2023-03-20T11:24:33;97080.30;;;23.61;25.22
47082;BME280;33066;49.296;14.470;2023-03-20T11:26:51;97080.58;;;23.70;24.73
47082;BME280;33066;49.296;14.470;2023-03-20T11:29:22;97075.98;;;23.98;24.35
47082;BME280;33066;49.296;14.470;2023-03-20T11:31:41;97073.54;;;23.91;24.18
47082;BME280;33066;49.296;14.470;2023-03-20T11:34:17;97069.19;;;24.26;24.14
47082;BME280;33066;49.296;14.470;2023-03-20T11:36:32;97070.44;;;23.90;23.86
47082;BME280;33066;49.296;14.470;2023-03-20T11:39:03;97074.18;;;24.15;23.59
47082;BME280;33066;49.296;14.470;2023-03-20T11:41:24;97067.21;;;24.18;23.62
47082;BME280;33066;49.296;14.470;2023-03-20T11:43:46;97070.55;;;24.37;24.02
47082;BME280;33066;49.296;14.470;2023-03-20T11:46:12;97071.06;;;24.48;23.86
47082;BME280;33066;49.296;14.470;2023-03-20T11:48:38;97062.17;;;24.87;23.91
47082;BME280;33066;49.296;14.470;2023-03-20T11:51:04;97061.10;;;25.14;23.16
47082;BME280;33066;49.296;14.470;2023-03-20T11:53:30;97054.22;;;25.16;23.20
47082;BME280;33066;49.296;14.470;2023-03-20T11:56:01;97049.42;;;24.90;23.28
47082;BME280;33066;49.296;14.470;2023-03-20T11:58:18;97049.95;;;24.20;23.94
47082;BME280;33066;49.296;14.470;2023-03-20T12:00:47;97046.91;;;23.79;24.36
47082;BME280;33066;49.296;14.470;2023-03-20T12:05:34;97048.32;;;23.58;24.62
47082;BME280;33066;49.296;14.470;2023-03-20T12:08:01;97046.36;;;23.76;24.00
47082;BME280;33066;49.296;14.470;2023-03-20T12:10:27;97048.60;;;23.64;24.30
47082;BME280;33066;49.296;14.470;2023-03-20T12:12:50;97053.18;;;23.41;24.48
47082;BME280;33066;49.296;14.470;2023-03-20T12:15:17;97054.28;;;22.68;25.00
47082;BME280;33066;49.296;14.470;2023-03-20T12:17:43;97052.45;;;22.44;25.58
47082;BME280;33066;49.296;14.470;2023-03-20T12:20:13;97051.42;;;22.47;25.64
47082;BME280;33066;49.296;14.470;2023-03-20T12:22:32;97049.68;;;22.15;26.27
47082;BME280;33066;49.296;14.470;2023-03-20T12:25:00;97047.94;;;22.21;25.70
47082;BME280;33066;49.296;14.470;2023-03-20T12:27:23;97048.64;;;22.19;25.61
47082;BME280;33066;49.296;14.470;2023-03-20T12:29:47;97044.38;;;22.43;25.53
47082;BME280;33066;49.296;14.470;2023-03-20T12:32:13;97040.43;;;22.50;25.21
47082;BME280;33066;49.296;14.470;2023-03-20T12:34:38;97040.23;;;22.36;25.62
47082;BME280;33066;49.296;14.470;2023-03-20T12:37:00;97040.85;;;22.15;26.37
47082;BME280;33066;49.296;14.470;2023-03-20T12:39:31;97040.06;;;21.68;26.43
47082;BME280;33066;49.296;14.470;2023-03-20T12:42:02;97038.56;;;21.60;27.10
47082;BME280;33066;49.296;14.470;2023-03-20T12:44:26;97044.04;;;21.29;26.11
47082;BME280;33066;49.296;14.470;2023-03-20T12:46:44;97053.29;;;21.24;25.80
47082;BME280;33066;49.296;14.470;2023-03-20T12:49:11;97043.50;;;20.42;26.52
47082;BME280;33066;49.296;14.470;2023-03-20T12:51:38;97044.93;;;20.62;26.71
47082;BME280;33066;49.296;14.470;2023-03-20T12:54:10;97038.86;;;20.88;26.56
47082;BME280;33066;49.296;14.470;2023-03-20T12:56:30;97039.60;;;20.76;26.73
47082;BME280;33066;49.296;14.470;2023-03-20T12:58:50;97036.22;;;20.85;26.90
47082;BME280;33066;49.296;14.470;2023-03-20T13:01:15;97033.71;;;20.76;26.59